Buoy 13570

sailwx.info

Track history (hours):
 
Tides and Currents Weather Stations Pressure Air Temp Water Temp Dewpoint Dewpoint Depression Visibility Wind Speed Wind Dir Waves Ship Positions

Drifting buoy 13570

Last reported at 2015-Jul-04 12:00 UTC. Time now 2015-Jul-04 17:05 UTC.
Position N 35°24' W 021°53'.

Barometer 1025.4 mb
Water temperature 22.4 ° C

Date/timePositionNaut miles runAvg speedWind from/ knotsBaromVisibWave heightAir tempDewpointWater temp
2015-Jul-04 12:00N 35°24' W 021°53'1 0.4 1025.4 22.4
2015-Jul-04 09:00N 35°23' W 021°54'1 0.9 1024.6 22.3
2015-Jul-04 08:00N 35°24' W 021°53'2 0.5 1024.2 22.2
2015-Jul-04 03:00N 35°22' W 021°55'1 0.2 1022.8 22.3
2015-Jul-03 23:00N 35°22' W 021°54'0 0.1 1023.4 22.4
2015-Jul-03 22:00N 35°22' W 021°54'1 0.6 1022.9 22.4
2015-Jul-03 21:00N 35°22' W 021°55'0 0.0 1022.3 22.4
2015-Jul-03 20:00N 35°22' W 021°55'1 0.3 1022.0 22.5
2015-Jul-03 18:00N 35°21' W 021°56'0 0.1 1021.3 22.6
2015-Jul-03 16:00N 35°21' W 021°56'0 0.5 1020.5 22.5
2015-Jul-03 15:00N 35°21' W 021°56'0 0.0 1020.3 22.5
2015-Jul-03 14:00N 35°21' W 021°56'2 0.2 1020.2 22.4
2015-Jul-03 03:00N 35°20' W 021°58'2 1.7 1018.5 22.3
2015-Jul-03 02:00N 35°20' W 021°56'2 0.9 1018.9 22.3
2015-Jul-03 00:00N 35°20' W 021°58'0 0.2 1020.0 22.3
2015-Jul-02 23:00N 35°20' W 021°58'0 0.0 1020.7 22.3
2015-Jul-02 22:00N 35°20' W 021°58'0 0.2 1020.7 22.3
2015-Jul-02 20:00N 35°20' W 021°59'1 1.3 1020.4 22.3
2015-Jul-02 19:00N 35°20' W 022°00'2 0.2 1020.5 22.4
2015-Jul-02 11:00N 35°18' W 022°00'1 0.2 1023.1 22.3
2015-Jul-02 06:00N 35°17' W 022°00'0 0.1 1023.0 22.2
2015-Jul-02 05:00N 35°17' W 022°00'4 0.3 1022.9 22.3
2015-Jul-01 15:00N 35°13' W 022°01'1 0.2 1023.7 22.4
2015-Jul-01 10:00N 35°12' W 022°02'1 0.7 1023.4 22.3
2015-Jul-01 09:00N 35°12' W 022°02'1 0.5 1023.0 22.3
2015-Jul-01 08:00N 35°12' W 022°01'2 0.2 1022.6 22.3
2015-Jun-30 20:00N 35°10' W 022°02'2 0.7 1021.3 22.7
2015-Jun-30 17:00N 35°08' W 022°00'0 0.0 1020.7 22.8
2015-Jun-30 16:00N 35°08' W 022°00'0 0.1 1020.7 22.7
2015-Jun-30 10:00N 35°08' W 022°00'1 0.7 1020.3 22.6
2015-Jun-30 09:00N 35°07' W 022°00'0 0.1 1019.7 22.7
2015-Jun-30 08:00N 35°07' W 022°00'3 0.3 1019.1 22.7
2015-Jun-29 20:00N 35°04' W 022°01'2 1.6 1020.9 23.1
2015-Jun-29 19:00N 35°03' W 021°59'2 0.4 1021.0 23.1
2015-Jun-29 12:00N 35°00' W 021°59'2 0.4 1022.9 23.2
2015-Jun-29 06:00N 34°58' W 021°58'3 1.3 1022.6 23.3
2015-Jun-29 04:00N 34°55' W 021°58'0 0.0 1022.9 23.0
2015-Jun-29 03:00N 34°55' W 021°58'0 0.0 1023.3 23.1
2015-Jun-28 23:00N 34°55' W 021°58'2 0.4 1024.5 23.7
2015-Jun-28 18:00N 34°54' W 021°57'4 0.3 1023.8 25.4
2015-Jun-28 05:00N 34°50' W 021°56'0 0.5 1023.8 22.6
2015-Jun-28 04:00N 34°49' W 021°56'1 0.6 1023.9 22.6
2015-Jun-28 03:00N 34°49' W 021°56'2 0.3 1023.9 22.6
2015-Jun-27 20:00N 34°47' W 021°55'2 0.3 1023.5 23.1
2015-Jun-27 14:00N 34°45' W 021°54'0 0.2 1024.4 22.9
2015-Jun-27 12:00N 34°45' W 021°54'0 0.3 1024.5 22.5
2015-Jun-27 11:00N 34°45' W 021°54'5 0.3 1024.3 22.4
2015-Jun-26 20:00N 34°40' W 021°54'1 0.3 1024.3 22.6
2015-Jun-26 16:00N 34°38' W 021°53'2 0.4 1024.6 22.6
2015-Jun-26 10:00N 34°36' W 021°54'0 0.0 1025.2 22.1
2015-Jun-26 09:00N 34°36' W 021°54'0 0.0 1025.2 22.1
2015-Jun-26 08:00N 34°36' W 021°54'0 0.2 1024.6 22.0
2015-Jun-26 07:00N 34°36' W 021°54'0 0.0 1024.2 22.1
2015-Jun-26 06:00N 34°36' W 021°54'1 1.2 1024.1 22.1
2015-Jun-26 05:00N 34°35' W 021°55'1 0.7 1024.1 22.1
2015-Jun-26 04:00N 34°35' W 021°55'0 0.0 1024.2 22.2
2015-Jun-26 02:00N 34°35' W 021°55'1 0.4 1024.8 22.2
2015-Jun-26 00:00N 34°34' W 021°55'0 0.5 1025.2 22.2
2015-Jun-25 23:00N 34°33' W 021°55'0 0.2 1025.2 22.3
2015-Jun-25 22:00N 34°33' W 021°54'0 0.5 1024.7 22.4
2015-Jun-25 21:00N 34°33' W 021°54'1 0.3 1024.4 22.5
2015-Jun-25 18:00N 34°32' W 021°56'0 0.2 1023.9 22.8
2015-Jun-25 17:00N 34°32' W 021°56'0 0.0 1023.9 23.0
2015-Jun-25 16:00N 34°32' W 021°56'0 0.2 1023.9 22.9
2015-Jun-25 14:00N 34°32' W 021°56'1 0.4 1023.6 23.1
2015-Jun-25 11:00N 34°31' W 021°57'1 1.2 1023.9 22.2
2015-Jun-25 10:00N 34°30' W 021°58'0 0.1 1023.7 21.9
2015-Jun-25 07:00N 34°31' W 021°58'1 0.9 1022.6 21.8
2015-Jun-25 06:00N 34°30' W 021°58'2 0.6 1022.4 21.8
2015-Jun-25 03:00N 34°28' W 021°59'1 0.1 1022.2 21.9
2015-Jun-24 22:00N 34°28' W 021°58'1 0.5 1022.6 21.8
2015-Jun-24 20:00N 34°28' W 021°59'0 0.2 1021.9 22.1
2015-Jun-24 19:00N 34°28' W 021°59'1 0.3 1021.6 22.2
2015-Jun-24 17:00N 34°28' W 022°00'3 0.7 1022.2 22.3
2015-Jun-24 13:00N 34°27' W 022°03'0 0.2 1022.3 22.6
2015-Jun-24 12:00N 34°27' W 022°03'   1022.2 22.5
Track history (hours):
 
Tides and Currents Weather Stations Pressure Air Temp Water Temp Dewpoint Dewpoint Depression Visibility Wind Speed Wind Dir Waves Ship Positions

Drifting buoy 13570

Last reported at 2015-Jul-04 12:00 UTC. Time now 2015-Jul-04 17:05 UTC.
Position N 35°24' W 021°53'.

Barometer 1025.4 mb
Water temperature 22.4 ° C

Date/timePositionNaut miles runAvg speedWind from/ knotsBaromVisibWave heightAir tempDewpointWater temp
2015-Jul-04 12:00N 35°24' W 021°53'1 0.4 1025.4 22.4
2015-Jul-04 09:00N 35°23' W 021°54'1 0.9 1024.6 22.3
2015-Jul-04 08:00N 35°24' W 021°53'2 0.5 1024.2 22.2
2015-Jul-04 03:00N 35°22' W 021°55'1 0.2 1022.8 22.3
2015-Jul-03 23:00N 35°22' W 021°54'0 0.1 1023.4 22.4
2015-Jul-03 22:00N 35°22' W 021°54'1 0.6 1022.9 22.4
2015-Jul-03 21:00N 35°22' W 021°55'0 0.0 1022.3 22.4
2015-Jul-03 20:00N 35°22' W 021°55'1 0.3 1022.0 22.5
2015-Jul-03 18:00N 35°21' W 021°56'0 0.1 1021.3 22.6
2015-Jul-03 16:00N 35°21' W 021°56'0 0.5 1020.5 22.5
2015-Jul-03 15:00N 35°21' W 021°56'0 0.0 1020.3 22.5
2015-Jul-03 14:00N 35°21' W 021°56'2 0.2 1020.2 22.4
2015-Jul-03 03:00N 35°20' W 021°58'2 1.7 1018.5 22.3
2015-Jul-03 02:00N 35°20' W 021°56'2 0.9 1018.9 22.3
2015-Jul-03 00:00N 35°20' W 021°58'0 0.2 1020.0 22.3
2015-Jul-02 23:00N 35°20' W 021°58'0 0.0 1020.7 22.3
2015-Jul-02 22:00N 35°20' W 021°58'0 0.2 1020.7 22.3
2015-Jul-02 20:00N 35°20' W 021°59'1 1.3 1020.4 22.3
2015-Jul-02 19:00N 35°20' W 022°00'2 0.2 1020.5 22.4
2015-Jul-02 11:00N 35°18' W 022°00'1 0.2 1023.1 22.3
2015-Jul-02 06:00N 35°17' W 022°00'0 0.1 1023.0 22.2
2015-Jul-02 05:00N 35°17' W 022°00'4 0.3 1022.9 22.3
2015-Jul-01 15:00N 35°13' W 022°01'1 0.2 1023.7 22.4
2015-Jul-01 10:00N 35°12' W 022°02'1 0.7 1023.4 22.3
2015-Jul-01 09:00N 35°12' W 022°02'1 0.5 1023.0 22.3
2015-Jul-01 08:00N 35°12' W 022°01'2 0.2 1022.6 22.3
2015-Jun-30 20:00N 35°10' W 022°02'2 0.7 1021.3 22.7
2015-Jun-30 17:00N 35°08' W 022°00'0 0.0 1020.7 22.8
2015-Jun-30 16:00N 35°08' W 022°00'0 0.1 1020.7 22.7
2015-Jun-30 10:00N 35°08' W 022°00'1 0.7 1020.3 22.6
2015-Jun-30 09:00N 35°07' W 022°00'0 0.1 1019.7 22.7
2015-Jun-30 08:00N 35°07' W 022°00'3 0.3 1019.1 22.7
2015-Jun-29 20:00N 35°04' W 022°01'2 1.6 1020.9 23.1
2015-Jun-29 19:00N 35°03' W 021°59'2 0.4 1021.0 23.1
2015-Jun-29 12:00N 35°00' W 021°59'2 0.4 1022.9 23.2
2015-Jun-29 06:00N 34°58' W 021°58'3 1.3 1022.6 23.3
2015-Jun-29 04:00N 34°55' W 021°58'0 0.0 1022.9 23.0
2015-Jun-29 03:00N 34°55' W 021°58'0 0.0 1023.3 23.1
2015-Jun-28 23:00N 34°55' W 021°58'2 0.4 1024.5 23.7
2015-Jun-28 18:00N 34°54' W 021°57'4 0.3 1023.8 25.4
2015-Jun-28 05:00N 34°50' W 021°56'0 0.5 1023.8 22.6
2015-Jun-28 04:00N 34°49' W 021°56'1 0.6 1023.9 22.6
2015-Jun-28 03:00N 34°49' W 021°56'2 0.3 1023.9 22.6
2015-Jun-27 20:00N 34°47' W 021°55'2 0.3 1023.5 23.1
2015-Jun-27 14:00N 34°45' W 021°54'0 0.2 1024.4 22.9
2015-Jun-27 12:00N 34°45' W 021°54'0 0.3 1024.5 22.5
2015-Jun-27 11:00N 34°45' W 021°54'5 0.3 1024.3 22.4
2015-Jun-26 20:00N 34°40' W 021°54'1 0.3 1024.3 22.6
2015-Jun-26 16:00N 34°38' W 021°53'2 0.4 1024.6 22.6
2015-Jun-26 10:00N 34°36' W 021°54'0 0.0 1025.2 22.1
2015-Jun-26 09:00N 34°36' W 021°54'0 0.0 1025.2 22.1
2015-Jun-26 08:00N 34°36' W 021°54'0 0.2 1024.6 22.0
2015-Jun-26 07:00N 34°36' W 021°54'0 0.0 1024.2 22.1
2015-Jun-26 06:00N 34°36' W 021°54'1 1.2 1024.1 22.1
2015-Jun-26 05:00N 34°35' W 021°55'1 0.7 1024.1 22.1
2015-Jun-26 04:00N 34°35' W 021°55'0 0.0 1024.2 22.2
2015-Jun-26 02:00N 34°35' W 021°55'1 0.4 1024.8 22.2
2015-Jun-26 00:00N 34°34' W 021°55'0 0.5 1025.2 22.2
2015-Jun-25 23:00N 34°33' W 021°55'0 0.2 1025.2 22.3
2015-Jun-25 22:00N 34°33' W 021°54'0 0.5 1024.7 22.4
2015-Jun-25 21:00N 34°33' W 021°54'1 0.3 1024.4 22.5
2015-Jun-25 18:00N 34°32' W 021°56'0 0.2 1023.9 22.8
2015-Jun-25 17:00N 34°32' W 021°56'0 0.0 1023.9 23.0
2015-Jun-25 16:00N 34°32' W 021°56'0 0.2 1023.9 22.9
2015-Jun-25 14:00N 34°32' W 021°56'1 0.4 1023.6 23.1
2015-Jun-25 11:00N 34°31' W 021°57'1 1.2 1023.9 22.2
2015-Jun-25 10:00N 34°30' W 021°58'0 0.1 1023.7 21.9
2015-Jun-25 07:00N 34°31' W 021°58'1 0.9 1022.6 21.8
2015-Jun-25 06:00N 34°30' W 021°58'2 0.6 1022.4 21.8
2015-Jun-25 03:00N 34°28' W 021°59'1 0.1 1022.2 21.9
2015-Jun-24 22:00N 34°28' W 021°58'1 0.5 1022.6 21.8
2015-Jun-24 20:00N 34°28' W 021°59'0 0.2 1021.9 22.1
2015-Jun-24 19:00N 34°28' W 021°59'1 0.3 1021.6 22.2
2015-Jun-24 17:00N 34°28' W 022°00'3 0.7 1022.2 22.3
2015-Jun-24 13:00N 34°27' W 022°03'0 0.2 1022.3 22.6
2015-Jun-24 12:00N 34°27' W 022°03'   1022.2 22.5

Dump ship's entire track history